Time;durP1;ratioP1;P1;durP2;ratioP2;P2;SDS_P1;SDS_P2;PMS_P1;PMS_P2;Temp;Humidity;BMP_temperature;BMP_pressure;BME280_temperature;BME280_humidity;BME280_pressure;Samples;Min_cycle;Max_cycle;Signal;HPM_P1;HPM_P2
2023/12/10 00:00:33;;;;;;;15.90;3.13;;;9.20;97.70;;;;;;4940269;28;20444;-76
2023/12/10 00:03:00;;;;;;;16.63;2.83;;;9.20;97.80;;;;;;4938879;29;20058;-77
2023/12/10 00:05:28;;;;;;;17.42;2.83;;;9.20;97.70;;;;;;4908926;29;20176;-77
2023/12/10 00:07:55;;;;;;;17.40;2.95;;;9.20;97.70;;;;;;4924149;29;20125;-77
2023/12/10 00:10:22;;;;;;;15.00;2.70;;;9.20;97.40;;;;;;4955779;28;20074;-77
2023/12/10 00:12:50;;;;;;;17.20;2.47;;;9.20;97.60;;;;;;4939750;29;20039;-78
2023/12/10 00:15:17;;;;;;;18.08;3.45;;;9.20;97.50;;;;;;4939569;29;20051;-78
2023/12/10 00:17:44;;;;;;;17.83;3.30;;;9.20;97.40;;;;;;4939779;29;20043;-77
2023/12/10 00:20:12;;;;;;;14.15;2.40;;;9.20;97.20;;;;;;4939562;29;20069;-77
2023/12/10 00:22:39;;;;;;;15.40;3.38;;;9.30;97.20;;;;;;4923727;29;20055;-78
2023/12/10 00:25:06;;;;;;;12.27;2.47;;;9.30;97.20;;;;;;4923556;29;20043;-77
2023/12/10 00:27:33;;;;;;;13.45;2.33;;;9.30;97.00;;;;;;4971299;28;20047;-77
2023/12/10 00:30:00;;;;;;;19.67;3.78;;;9.30;96.90;;;;;;4939611;29;20043;-77
2023/12/10 00:32:27;;;;;;;18.40;3.00;;;9.40;96.90;;;;;;4939344;29;20049;-77
2023/12/10 00:34:55;;;;;;;20.40;3.72;;;9.30;96.80;;;;;;4923565;29;20102;-77
2023/12/10 00:37:22;;;;;;;21.60;4.70;;;9.20;97.00;;;;;;4939203;29;20090;-77
2023/12/10 00:39:49;;;;;;;30.67;4.22;;;9.00;97.30;;;;;;4954883;28;20035;-77
2023/12/10 00:42:18;;;;;;;17.27;2.97;;;8.90;97.80;;;;;;4954932;29;20472;-77
2023/12/10 00:44:46;;;;;;;17.00;3.28;;;8.80;98.10;;;;;;4971934;28;20054;-77
2023/12/10 00:47:14;;;;;;;19.98;3.38;;;8.70;98.40;;;;;;4924803;29;20554;-77
2023/12/10 00:49:43;;;;;;;20.45;3.25;;;8.70;98.80;;;;;;4940298;29;20082;-77
2023/12/10 00:52:10;;;;;;;23.20;3.63;;;8.60;99.10;;;;;;4922936;29;20518;-76
2023/12/10 00:54:38;;;;;;;15.18;3.50;;;8.60;99.40;;;;;;4956133;29;20040;-77
2023/12/10 00:57:05;;;;;;;20.63;4.03;;;8.60;99.60;;;;;;4938735;29;20047;-77
2023/12/10 00:59:32;;;;;;;17.08;3.03;;;8.50;99.90;;;;;;4955784;29;20094;-77
2023/12/10 01:01:59;;;;;;;19.65;2.80;;;8.50;99.90;;;;;;4922940;29;20047;-77
2023/12/10 01:04:27;;;;;;;22.40;3.50;;;8.40;99.90;;;;;;4922895;29;20138;-78
2023/12/10 01:06:54;;;;;;;22.20;3.97;;;8.40;99.90;;;;;;4938409;29;20053;-78
2023/12/10 01:09:21;;;;;;;20.33;3.35;;;8.40;99.90;;;;;;4954401;28;20050;-77
2023/12/10 01:11:48;;;;;;;26.23;4.70;;;8.30;99.90;;;;;;4922919;29;20141;-78
2023/12/10 01:14:17;;;;;;;24.98;3.75;;;8.30;99.90;;;;;;4925572;29;20434;-78
2023/12/10 01:16:44;;;;;;;25.20;4.75;;;8.30;99.90;;;;;;4938529;29;20054;-77
2023/12/10 01:19:14;;;;;;;18.38;4.10;;;8.30;99.90;;;;;;4938041;29;20055;-77
2023/12/10 01:21:44;;;;;;;19.52;4.00;;;8.30;99.90;;;;;;4939796;28;20055;-77
2023/12/10 01:24:18;;;;;;;16.10;3.53;;;8.30;99.90;;;;;;4922743;29;20460;-77
2023/12/10 01:26:46;;;;;;;19.55;3.95;;;8.20;99.90;;;;;;4954413;29;20047;-77
2023/12/10 01:29:15;;;;;;;20.67;3.05;;;8.20;99.90;;;;;;4955452;29;20065;-77
2023/12/10 01:31:43;;;;;;;21.13;3.10;;;8.20;99.90;;;;;;4954506;28;20043;-77
2023/12/10 01:34:10;;;;;;;19.45;3.55;;;8.20;99.90;;;;;;4922712;29;20054;-77
2023/12/10 01:36:37;;;;;;;23.85;3.63;;;8.20;99.90;;;;;;4938168;29;20043;-77
2023/12/10 01:39:04;;;;;;;13.75;2.45;;;8.20;99.90;;;;;;4954022;28;20050;-78
2023/12/10 01:41:31;;;;;;;24.85;4.88;;;8.10;99.90;;;;;;4922304;29;20491;-78
2023/12/10 01:43:58;;;;;;;18.83;2.65;;;8.10;99.90;;;;;;4970018;28;20428;-78
2023/12/10 01:46:25;;;;;;;22.92;3.63;;;8.10;99.90;;;;;;4938089;29;20070;-78
2023/12/10 01:48:55;;;;;;;17.75;2.53;;;8.10;99.90;;;;;;4955049;29;20039;-78
2023/12/10 01:51:24;;;;;;;18.80;2.70;;;8.10;99.90;;;;;;4953914;29;20047;-78
2023/12/10 01:53:51;;;;;;;17.45;2.97;;;8.10;99.90;;;;;;4937859;29;20086;-77
2023/12/10 01:56:20;;;;;;;18.10;3.20;;;8.10;99.90;;;;;;4919042;29;20385;-77
2023/12/10 01:58:48;;;;;;;20.70;4.65;;;8.10;99.90;;;;;;4952486;29;20074;-79
2023/12/10 02:01:18;;;;;;;18.98;3.30;;;8.10;99.90;;;;;;4922562;29;20058;-79
2023/12/10 02:03:47;;;;;;;15.35;2.90;;;8.00;99.90;;;;;;4937766;29;20078;-79
2023/12/10 02:06:14;;;;;;;15.38;2.28;;;8.00;99.90;;;;;;4937952;29;20415;-78
2023/12/10 02:08:44;;;;;;;16.35;3.10;;;8.00;99.90;;;;;;4971053;28;20509;-79
2023/12/10 02:11:11;;;;;;;16.65;2.03;;;8.00;99.90;;;;;;4961008;29;20043;-79
2023/12/10 02:13:42;;;;;;;18.92;3.15;;;8.00;99.90;;;;;;4922678;29;20055;-79
2023/12/10 02:16:09;;;;;;;18.52;2.40;;;8.00;99.90;;;;;;4970134;28;20047;-79
2023/12/10 02:18:36;;;;;;;12.85;2.00;;;7.90;99.90;;;;;;4937512;29;20058;-80
2023/12/10 02:21:03;;;;;;;13.93;2.90;;;7.90;99.90;;;;;;4969864;28;20055;-80
2023/12/10 02:24:04;;;;;;;19.55;2.42;;;7.90;99.90;;;;;;4937962;29;20411;-79
2023/12/10 02:26:32;;;;;;;19.92;3.03;;;7.90;99.90;;;;;;4936133;29;20055;-80
2023/12/10 02:28:59;;;;;;;9.90;2.47;;;7.80;99.90;;;;;;4952841;29;20415;-80
2023/12/10 02:31:27;;;;;;;19.08;2.70;;;7.80;99.90;;;;;;4926038;29;20043;-79
2023/12/10 02:33:54;;;;;;;20.08;3.28;;;7.80;99.90;;;;;;4957408;28;20054;-81
2023/12/10 02:36:21;;;;;;;21.10;2.78;;;7.80;99.90;;;;;;4941355;29;20052;-79
2023/12/10 02:38:49;;;;;;;22.38;3.63;;;7.80;99.90;;;;;;4925625;29;20047;-80
2023/12/10 02:41:19;;;;;;;17.70;2.67;;;7.80;99.90;;;;;;4957381;29;20102;-77
2023/12/10 02:43:46;;;;;;;12.18;2.03;;;7.80;99.90;;;;;;4941232;29;20062;-80
2023/12/10 02:46:13;;;;;;;20.15;2.65;;;7.80;99.90;;;;;;4941374;29;20515;-79
2023/12/10 02:48:40;;;;;;;19.23;2.92;;;7.80;99.90;;;;;;4957017;29;20483;-77
2023/12/10 02:51:08;;;;;;;15.73;2.55;;;7.80;99.90;;;;;;4941670;29;20074;-79
2023/12/10 02:53:35;;;;;;;24.90;3.03;;;7.80;99.90;;;;;;4941730;29;20071;-79
2023/12/10 02:56:05;;;;;;;15.15;2.40;;;7.80;99.90;;;;;;4942109;29;20035;-81
2023/12/10 02:58:32;;;;;;;16.33;3.15;;;7.80;99.90;;;;;;4941113;29;20055;-80
2023/12/10 03:01:02;;;;;;;20.77;4.47;;;7.80;99.90;;;;;;4941510;28;20117;-80
2023/12/10 03:03:29;;;;;;;20.52;2.53;;;7.70;99.90;;;;;;4941526;29;20079;-85
2023/12/10 03:06:03;;;;;;;20.85;3.72;;;7.70;99.90;;;;;;4925849;29;20070;-87
2023/12/10 03:08:30;;;;;;;19.85;2.67;;;7.70;99.90;;;;;;4925261;29;20574;-84
2023/12/10 03:10:58;;;;;;;18.98;2.58;;;7.70;99.90;;;;;;4956205;29;20050;-81
2023/12/10 03:13:25;;;;;;;19.25;2.70;;;7.70;99.90;;;;;;4956634;29;20419;-81
2023/12/10 03:15:52;;;;;;;22.67;2.78;;;7.70;99.90;;;;;;4957151;29;20043;-84
2023/12/10 03:18:19;;;;;;;16.90;3.03;;;7.70;99.90;;;;;;4957239;29;20082;-84
2023/12/10 03:20:47;;;;;;;21.20;3.78;;;7.70;99.90;;;;;;4964529;28;20063;-81
2023/12/10 03:23:14;;;;;;;16.42;3.78;;;7.60;99.90;;;;;;4937198;29;20055;-79
2023/12/10 03:25:43;;;;;;;19.00;3.28;;;7.60;99.90;;;;;;4953082;29;20067;-80
2023/12/10 03:28:10;;;;;;;18.42;3.83;;;7.60;99.90;;;;;;4932782;29;20043;-79
2023/12/10 03:30:37;;;;;;;28.75;3.65;;;7.60;99.90;;;;;;4921025;29;20147;-79
2023/12/10 03:33:04;;;;;;;22.05;3.67;;;7.60;99.90;;;;;;4920921;29;20071;-78
2023/12/10 03:35:31;;;;;;;17.20;2.53;;;7.60;99.90;;;;;;4936674;29;20048;-78
2023/12/10 03:37:58;;;;;;;29.23;3.97;;;7.60;99.90;;;;;;4926306;29;20257;-77
2023/12/10 03:40:25;;;;;;;23.50;2.92;;;7.60;99.90;;;;;;4924808;29;20412;-78
2023/12/10 03:42:52;;;;;;;21.75;3.60;;;7.60;99.90;;;;;;4937185;29;20071;-78
2023/12/10 03:45:19;;;;;;;24.40;3.95;;;7.60;99.90;;;;;;4921027;29;20059;-79
2023/12/10 03:47:47;;;;;;;15.02;2.58;;;7.60;99.90;;;;;;4929489;28;20103;-78
2023/12/10 03:50:15;;;;;;;18.30;3.45;;;7.60;99.90;;;;;;4923790;29;20043;-78
2023/12/10 03:52:42;;;;;;;16.63;2.83;;;7.60;99.90;;;;;;4937134;29;20516;-78
2023/12/10 03:55:09;;;;;;;23.10;2.72;;;7.60;99.90;;;;;;4937004;29;20039;-79
2023/12/10 03:57:36;;;;;;;22.85;3.70;;;7.60;99.90;;;;;;4931473;29;20051;-79
2023/12/10 04:00:04;;;;;;;18.20;3.40;;;7.60;99.90;;;;;;4932482;29;20040;-78
2023/12/10 04:02:38;;;;;;;24.48;3.42;;;7.60;99.90;;;;;;4925501;29;20050;-78
2023/12/10 04:05:11;;;;;;;19.70;3.58;;;7.60;99.90;;;;;;4926200;29;20047;-79
2023/12/10 04:07:41;;;;;;;25.20;2.77;;;7.60;99.90;;;;;;4933090;29;20111;-80
2023/12/10 04:10:08;;;;;;;19.75;3.53;;;7.60;99.90;;;;;;4920398;29;20331;-79
2023/12/10 04:12:35;;;;;;;24.45;3.58;;;7.60;99.90;;;;;;4936410;29;20047;-77
2023/12/10 04:15:04;;;;;;;27.35;3.60;;;7.60;99.90;;;;;;4919432;29;20492;-77
2023/12/10 04:17:31;;;;;;;27.30;4.00;;;7.60;99.90;;;;;;4918050;29;20118;-78
2023/12/10 04:19:58;;;;;;;21.23;3.05;;;7.60;99.90;;;;;;4964887;28;20114;-78
2023/12/10 04:22:27;;;;;;;23.40;4.45;;;7.60;99.90;;;;;;4939552;29;20048;-78
2023/12/10 04:24:54;;;;;;;21.85;4.18;;;7.60;99.90;;;;;;4939219;29;20381;-78
2023/12/10 04:27:23;;;;;;;21.52;3.65;;;7.60;99.90;;;;;;4923494;29;20055;-78
2023/12/10 04:29:51;;;;;;;23.38;3.47;;;7.60;99.90;;;;;;4939356;29;20035;-79
2023/12/10 04:32:18;;;;;;;21.48;3.05;;;7.60;99.90;;;;;;4939400;29;20055;-78
2023/12/10 04:34:48;;;;;;;18.83;3.47;;;7.60;99.90;;;;;;4939101;29;20495;-77
2023/12/10 04:37:18;;;;;;;19.85;2.70;;;7.60;99.90;;;;;;4948896;28;20048;-77
2023/12/10 04:39:46;;;;;;;20.80;3.15;;;7.60;99.90;;;;;;4939066;29;20125;-76
2023/12/10 04:42:13;;;;;;;16.48;3.10;;;7.60;99.90;;;;;;4970971;28;20083;-78
2023/12/10 04:44:40;;;;;;;26.33;3.20;;;7.70;99.90;;;;;;4938837;29;20074;-78
2023/12/10 04:47:07;;;;;;;22.38;3.72;;;7.70;99.90;;;;;;4923463;29;20133;-79
2023/12/10 04:49:34;;;;;;;15.50;2.80;;;7.60;99.90;;;;;;4956447;28;20074;-78
2023/12/10 04:52:01;;;;;;;19.67;2.60;;;7.70;99.90;;;;;;4941733;29;20564;-77
2023/12/10 04:54:29;;;;;;;24.52;3.60;;;7.70;99.90;;;;;;4946556;28;20039;-78
2023/12/10 04:56:56;;;;;;;26.80;4.78;;;7.60;99.90;;;;;;4938797;29;20058;-77
2023/12/10 04:59:23;;;;;;;16.52;2.60;;;7.70;99.90;;;;;;4938721;29;20051;-78
2023/12/10 05:01:50;;;;;;;21.58;3.58;;;7.70;99.90;;;;;;4939211;29;20078;-78
2023/12/10 05:04:18;;;;;;;26.02;3.33;;;7.70;99.90;;;;;;4939013;29;20142;-78
2023/12/10 05:06:46;;;;;;;29.27;3.95;;;7.60;99.90;;;;;;4954647;29;20062;-78
2023/12/10 05:09:14;;;;;;;25.00;3.20;;;7.60;99.90;;;;;;4954568;29;20077;-77
2023/12/10 05:11:43;;;;;;;18.77;3.63;;;7.60;99.90;;;;;;4938478;29;20048;-77
2023/12/10 05:14:10;;;;;;;22.98;3.40;;;7.60;99.90;;;;;;4938479;29;20141;-77
2023/12/10 05:16:37;;;;;;;19.80;3.60;;;7.60;99.90;;;;;;4938567;29;20082;-78
2023/12/10 05:19:04;;;;;;;23.00;5.18;;;7.60;99.90;;;;;;4922759;29;20063;-77
2023/12/10 05:21:33;;;;;;;23.38;3.47;;;7.60;99.90;;;;;;4938564;29;20051;-77
2023/12/10 05:24:00;;;;;;;27.90;4.05;;;7.70;99.90;;;;;;4938790;28;20114;-76
2023/12/10 05:26:27;;;;;;;16.10;3.15;;;7.70;99.90;;;;;;4954450;28;20051;-77
2023/12/10 05:28:54;;;;;;;25.95;4.10;;;7.70;99.90;;;;;;4938207;29;20439;-77
2023/12/10 05:31:21;;;;;;;20.35;4.38;;;7.70;99.90;;;;;;4938416;29;20047;-76
2023/12/10 05:33:49;;;;;;;27.50;3.85;;;7.70;99.90;;;;;;4938446;29;20043;-77
2023/12/10 05:36:16;;;;;;;17.73;2.58;;;7.70;99.90;;;;;;4938308;29;20043;-78
2023/12/10 05:38:43;;;;;;;18.67;3.17;;;7.70;99.90;;;;;;4954437;28;20444;-76
2023/12/10 05:41:10;;;;;;;19.05;3.50;;;7.70;99.90;;;;;;4938652;29;20640;-77
2023/12/10 05:43:37;;;;;;;23.10;4.88;;;7.70;99.90;;;;;;4954948;29;20130;-77
2023/12/10 05:46:04;;;;;;;22.92;5.20;;;7.70;99.90;;;;;;4946553;29;20083;-77
2023/12/10 05:48:33;;;;;;;21.17;3.90;;;7.70;99.90;;;;;;4943475;28;20066;-77
2023/12/10 05:51:03;;;;;;;21.48;3.50;;;7.70;99.90;;;;;;4954517;28;20054;-77
2023/12/10 05:53:30;;;;;;;22.67;2.67;;;7.70;99.90;;;;;;4941074;29;20043;-77
2023/12/10 05:55:57;;;;;;;22.40;3.28;;;7.70;99.90;;;;;;4954052;29;20047;-76
2023/12/10 05:58:27;;;;;;;19.42;4.22;;;7.70;99.90;;;;;;4938767;29;20054;-76
2023/12/10 06:00:55;;;;;;;20.77;3.13;;;7.70;99.90;;;;;;4936941;29;20102;-78
2023/12/10 06:03:24;;;;;;;19.17;2.47;;;7.70;99.90;;;;;;4938001;29;20062;-77
2023/12/10 06:05:52;;;;;;;26.60;3.35;;;7.70;99.90;;;;;;4938639;29;20082;-76
2023/12/10 06:08:19;;;;;;;23.90;3.15;;;7.70;99.90;;;;;;4921990;29;20051;-77
2023/12/10 06:10:46;;;;;;;23.50;3.83;;;7.70;99.90;;;;;;4937907;29;20043;-77
2023/12/10 06:13:13;;;;;;;15.27;3.30;;;7.70;99.90;;;;;;4937664;29;20051;-77
2023/12/10 06:15:41;;;;;;;24.05;3.83;;;7.70;99.90;;;;;;4922148;29;20507;-77
2023/12/10 06:18:08;;;;;;;24.17;3.40;;;7.70;99.90;;;;;;4953860;29;20122;-76
2023/12/10 06:20:35;;;;;;;21.45;3.92;;;7.80;99.90;;;;;;4937752;29;20548;-75
2023/12/10 06:23:02;;;;;;;25.55;3.15;;;7.80;99.90;;;;;;4954740;29;20119;-76
2023/12/10 06:25:29;;;;;;;22.30;2.85;;;7.80;99.90;;;;;;4937739;29;20098;-76
2023/12/10 06:27:56;;;;;;;20.75;4.32;;;7.90;99.90;;;;;;4909524;29;20043;-77
2023/12/10 06:30:24;;;;;;;23.75;3.35;;;7.90;99.90;;;;;;4937798;29;20047;-77
2023/12/10 06:32:51;;;;;;;20.85;2.92;;;7.90;99.90;;;;;;4922070;29;20050;-77
2023/12/10 06:35:22;;;;;;;23.95;4.07;;;7.90;99.90;;;;;;4953469;29;20143;-76
2023/12/10 06:37:49;;;;;;;16.58;3.13;;;8.00;99.90;;;;;;4922444;29;20130;-77
2023/12/10 06:40:17;;;;;;;19.75;3.70;;;8.00;99.90;;;;;;4952846;28;20052;-77
2023/12/10 06:42:44;;;;;;;14.85;2.70;;;8.00;99.90;;;;;;4953715;29;20039;-77
2023/12/10 06:45:12;;;;;;;21.10;2.50;;;8.10;99.90;;;;;;4937561;29;20159;-77
2023/12/10 06:47:40;;;;;;;20.05;3.67;;;8.10;99.90;;;;;;4943004;29;20138;-78
2023/12/10 06:50:08;;;;;;;24.65;3.85;;;8.10;99.90;;;;;;4954566;29;20395;-77
2023/12/10 06:52:35;;;;;;;20.10;3.40;;;8.10;99.90;;;;;;4937811;29;20043;-77
2023/12/10 06:55:03;;;;;;;22.17;3.40;;;8.20;99.90;;;;;;4925975;29;20136;-77
2023/12/10 06:57:30;;;;;;;23.00;3.47;;;8.30;99.90;;;;;;4921792;29;20158;-78
2023/12/10 06:59:57;;;;;;;35.97;5.57;;;8.30;99.90;;;;;;4936927;29;20054;-76
2023/12/10 07:02:24;;;;;;;22.58;3.13;;;8.30;99.90;;;;;;4954826;29;20125;-77
2023/12/10 07:04:51;;;;;;;20.67;3.38;;;8.30;99.90;;;;;;4937236;29;20414;-77
2023/12/10 07:07:18;;;;;;;16.50;2.67;;;8.30;99.90;;;;;;4953137;29;20051;-77
2023/12/10 07:09:48;;;;;;;20.90;3.25;;;8.30;99.90;;;;;;4937367;29;20035;-77
2023/12/10 07:12:15;;;;;;;13.60;2.88;;;8.20;99.90;;;;;;4938097;29;20579;-77
2023/12/10 07:14:44;;;;;;;20.05;2.60;;;8.20;99.90;;;;;;4956630;29;20467;-77
2023/12/10 07:17:17;;;;;;;17.38;2.55;;;8.20;99.90;;;;;;4956607;29;20488;-77
2023/12/10 07:19:44;;;;;;;18.52;3.60;;;8.20;99.90;;;;;;4924791;29;20051;-77
2023/12/10 07:22:14;;;;;;;19.13;4.35;;;8.20;99.90;;;;;;4941085;29;20495;-76
2023/12/10 07:24:44;;;;;;;23.17;4.47;;;8.20;99.90;;;;;;4941024;29;20054;-78
2023/12/10 07:27:13;;;;;;;21.13;3.38;;;8.20;99.90;;;;;;4940433;29;20081;-78
2023/12/10 07:29:40;;;;;;;22.00;2.78;;;8.30;99.90;;;;;;4956447;28;20047;-78
2023/12/10 07:32:07;;;;;;;14.23;2.17;;;8.40;99.90;;;;;;4972673;28;20130;-78
2023/12/10 07:34:34;;;;;;;17.25;3.70;;;8.50;99.90;;;;;;4940368;29;20063;-78
2023/12/10 07:37:02;;;;;;;14.13;2.30;;;8.50;99.90;;;;;;4956317;28;20044;-78
2023/12/10 07:39:29;;;;;;;17.45;3.15;;;8.60;99.80;;;;;;4940290;29;20440;-78
2023/12/10 07:41:56;;;;;;;12.98;2.08;;;8.60;99.60;;;;;;4940560;28;20054;-78
2023/12/10 07:44:23;;;;;;;13.73;2.85;;;8.60;99.50;;;;;;4940567;29;20058;-78
2023/12/10 07:46:50;;;;;;;19.67;2.50;;;8.70;99.40;;;;;;4956195;29;20043;-78
2023/12/10 07:49:17;;;;;;;18.48;2.53;;;8.70;99.30;;;;;;4924564;29;20062;-78
2023/12/10 07:51:45;;;;;;;16.67;3.38;;;8.70;98.80;;;;;;4940062;29;20051;-77
2023/12/10 07:54:20;;;;;;;18.95;2.70;;;8.80;98.70;;;;;;4941402;29;20555;-76
2023/12/10 07:56:48;;;;;;;23.10;3.22;;;8.80;98.50;;;;;;4956054;29;20086;-76
2023/12/10 07:59:17;;;;;;;18.67;3.35;;;8.80;98.30;;;;;;4940074;29;20054;-76
2023/12/10 08:01:44;;;;;;;19.38;3.28;;;8.80;98.00;;;;;;4955826;29;20407;-76
2023/12/10 08:04:14;;;;;;;16.42;2.67;;;8.80;98.30;;;;;;4971771;28;20055;-76
2023/12/10 08:06:43;;;;;;;21.85;3.05;;;8.90;98.10;;;;;;4971733;28;20460;-76
2023/12/10 08:09:10;;;;;;;20.17;3.72;;;8.90;98.00;;;;;;4939601;29;20059;-76
2023/12/10 08:11:37;;;;;;;18.73;3.90;;;8.90;98.00;;;;;;4926572;29;20057;-76
2023/12/10 08:14:04;;;;;;;15.80;3.38;;;8.90;97.80;;;;;;4971711;28;20047;-76
2023/12/10 08:16:31;;;;;;;13.88;3.00;;;8.90;97.70;;;;;;4955307;29;20072;-76
2023/12/10 08:19:02;;;;;;;16.33;2.88;;;8.90;97.70;;;;;;4953239;28;20056;-76
2023/12/10 08:21:30;;;;;;;18.00;2.78;;;8.90;97.80;;;;;;4952205;29;20046;-76
2023/12/10 08:23:57;;;;;;;23.20;3.28;;;8.90;97.80;;;;;;4951250;28;20043;-77
2023/12/10 08:26:24;;;;;;;17.75;2.83;;;8.90;97.40;;;;;;4951921;29;20127;-77
2023/12/10 08:28:51;;;;;;;15.07;2.25;;;9.00;97.50;;;;;;4951874;29;20053;-76
2023/12/10 08:31:19;;;;;;;14.32;2.50;;;8.90;97.50;;;;;;4967703;28;20357;-84
2023/12/10 08:33:47;;;;;;;16.35;2.90;;;8.90;97.30;;;;;;4935871;29;20056;-76
2023/12/10 08:36:14;;;;;;;12.82;2.50;;;8.90;97.50;;;;;;4958870;28;20050;-76
2023/12/10 08:38:41;;;;;;;17.80;2.35;;;8.90;97.50;;;;;;4969512;28;20408;-76
2023/12/10 08:41:08;;;;;;;11.32;2.28;;;8.90;97.50;;;;;;4968690;28;20051;-77
2023/12/10 08:43:38;;;;;;;14.77;2.15;;;8.90;97.40;;;;;;4967539;28;20377;-76
2023/12/10 08:46:08;;;;;;;17.33;2.80;;;9.00;97.40;;;;;;4967632;28;20523;-77
2023/12/10 08:48:35;;;;;;;17.55;2.97;;;9.00;97.30;;;;;;4937095;29;20098;-76
2023/12/10 08:51:03;;;;;;;14.20;2.13;;;9.00;97.20;;;;;;4967223;28;20106;-77
2023/12/10 08:53:30;;;;;;;19.90;3.00;;;9.00;97.00;;;;;;4967115;28;20419;-75
2023/12/10 08:55:57;;;;;;;21.58;3.28;;;9.00;96.90;;;;;;4967575;28;20044;-77
2023/12/10 08:58:27;;;;;;;14.30;2.63;;;9.00;96.90;;;;;;4967625;28;20099;-76
2023/12/10 09:00:54;;;;;;;12.90;2.47;;;9.00;96.80;;;;;;4967006;28;20584;-75
2023/12/10 09:03:21;;;;;;;15.90;2.95;;;9.10;96.80;;;;;;4935509;29;20130;-77
2023/12/10 09:05:48;;;;;;;19.50;4.43;;;9.10;96.90;;;;;;4954449;28;20054;-77
2023/12/10 09:08:18;;;;;;;19.48;2.47;;;9.10;96.90;;;;;;4967165;28;20055;-80
2023/12/10 09:10:48;;;;;;;18.95;3.28;;;9.10;96.80;;;;;;4950302;29;20044;-76
2023/12/10 09:13:18;;;;;;;17.13;1.85;;;9.10;96.80;;;;;;4967234;28;20423;-77
2023/12/10 09:15:45;;;;;;;15.60;2.80;;;9.10;96.80;;;;;;4966926;28;20051;-77
2023/12/10 09:18:12;;;;;;;13.27;2.08;;;9.10;97.00;;;;;;4926257;29;20044;-76
2023/12/10 09:20:39;;;;;;;17.20;3.65;;;9.10;97.00;;;;;;4956253;29;20455;-75
2023/12/10 09:23:06;;;;;;;14.35;2.13;;;9.10;96.80;;;;;;4945263;29;20074;-76
2023/12/10 09:25:33;;;;;;;14.35;1.83;;;9.20;96.80;;;;;;4949761;29;20035;-74
2023/12/10 09:28:00;;;;;;;19.55;2.63;;;9.20;96.80;;;;;;4974827;28;20543;-76
2023/12/10 09:30:31;;;;;;;20.13;2.90;;;9.20;96.60;;;;;;4924242;29;20423;-75
2023/12/10 09:32:58;;;;;;;16.58;2.33;;;9.20;96.60;;;;;;4955376;29;20070;-76
2023/12/10 09:35:25;;;;;;;22.52;2.90;;;9.20;96.70;;;;;;4938648;29;20058;-76
2023/12/10 09:37:52;;;;;;;14.90;2.05;;;9.20;96.70;;;;;;4954275;29;20445;-76
2023/12/10 09:40:19;;;;;;;12.80;2.10;;;9.20;96.70;;;;;;4955426;29;20050;-75
2023/12/10 09:42:50;;;;;;;15.32;3.00;;;9.20;96.60;;;;;;4953786;29;20048;-76
2023/12/10 09:45:17;;;;;;;20.20;2.17;;;9.30;96.40;;;;;;4938106;29;20054;-77
2023/12/10 09:47:46;;;;;;;15.43;2.45;;;9.30;96.30;;;;;;4938249;29;20138;-76
2023/12/10 09:50:13;;;;;;;12.77;2.60;;;9.30;96.30;;;;;;4937912;29;20051;-77
2023/12/10 09:52:40;;;;;;;11.50;2.20;;;9.30;96.10;;;;;;4938176;29;20039;-76
2023/12/10 09:55:09;;;;;;;9.50;1.90;;;9.40;96.20;;;;;;4942774;29;20428;-76
2023/12/10 09:57:36;;;;;;;13.65;2.03;;;9.40;96.20;;;;;;4935638;29;20039;-76
2023/12/10 10:00:06;;;;;;;15.82;2.58;;;9.40;96.10;;;;;;4953870;29;20047;-76
2023/12/10 10:02:33;;;;;;;18.40;2.75;;;9.40;96.00;;;;;;4953904;29;20047;-76
2023/12/10 10:05:02;;;;;;;16.80;2.28;;;9.40;95.70;;;;;;4953772;29;20062;-76
2023/12/10 10:07:30;;;;;;;17.23;2.08;;;9.50;95.60;;;;;;4937873;29;20425;-77
2023/12/10 10:09:57;;;;;;;10.70;2.22;;;9.50;95.70;;;;;;4954991;29;20035;-75
2023/12/10 10:12:31;;;;;;;14.05;2.53;;;9.50;95.70;;;;;;4953752;29;20039;-76
2023/12/10 10:15:00;;;;;;;9.85;1.70;;;9.50;95.50;;;;;;4954003;29;20134;-75
2023/12/10 10:17:32;;;;;;;15.93;2.33;;;9.50;95.60;;;;;;4969658;28;20054;-76
2023/12/10 10:20:02;;;;;;;9.90;1.33;;;9.50;95.60;;;;;;4953390;29;20122;-75
2023/12/10 10:22:30;;;;;;;13.32;2.47;;;9.50;95.60;;;;;;4937590;29;20083;-76
2023/12/10 10:24:58;;;;;;;12.68;1.77;;;9.50;95.60;;;;;;4937773;29;20054;-75
2023/12/10 10:27:25;;;;;;;13.65;2.08;;;9.50;95.60;;;;;;4938008;29;20106;-75
2023/12/10 10:29:54;;;;;;;11.75;2.28;;;9.60;95.40;;;;;;4953930;29;20036;-81
2023/12/10 10:32:22;;;;;;;13.38;2.45;;;9.60;95.50;;;;;;4937587;29;20127;-81
2023/12/10 10:34:50;;;;;;;14.95;2.33;;;9.60;95.60;;;;;;4937728;29;20444;-79
2023/12/10 10:37:18;;;;;;;11.20;2.03;;;9.60;95.60;;;;;;4937902;29;20047;-81
2023/12/10 10:39:49;;;;;;;14.30;2.50;;;9.60;95.60;;;;;;4937932;29;20118;-80
2023/12/10 10:42:18;;;;;;;14.73;2.65;;;9.50;95.60;;;;;;4938058;29;20053;-81
2023/12/10 10:44:48;;;;;;;10.35;1.83;;;9.60;95.70;;;;;;4937962;29;20039;-81
2023/12/10 10:47:18;;;;;;;14.40;1.98;;;9.50;95.70;;;;;;4938877;29;20483;-80
2023/12/10 10:49:54;;;;;;;13.10;1.98;;;9.50;95.70;;;;;;4941636;29;20040;-79
2023/12/10 10:52:42;;;;;;;18.13;2.90;;;9.60;95.50;;;;;;4948225;29;20042;-78
2023/12/10 10:55:10;;;;;;;10.57;1.55;;;9.60;95.60;;;;;;4941355;29;20204;-78
2023/12/10 10:57:39;;;;;;;25.30;3.83;;;9.60;95.60;;;;;;4941434;29;20070;-82
2023/12/10 11:00:18;;;;;;;13.27;2.40;;;9.50;95.60;;;;;;4941142;29;20051;-77
2023/12/10 11:02:52;;;;;;;16.92;2.70;;;9.60;95.50;;;;;;4958630;29;20051;-78
2023/12/10 11:05:35;;;;;;;16.20;2.25;;;9.60;95.50;;;;;;4941380;29;20082;-79
2023/12/10 11:08:04;;;;;;;17.00;3.00;;;9.70;95.70;;;;;;4958068;29;20067;-78
2023/12/10 11:10:39;;;;;;;14.00;2.85;;;9.70;95.40;;;;;;4925371;29;20050;-78
2023/12/10 11:13:06;;;;;;;16.33;3.92;;;9.70;95.40;;;;;;4947564;29;20137;-76
2023/12/10 11:15:33;;;;;;;16.98;2.80;;;9.80;95.20;;;;;;4940839;29;20039;-76
2023/12/10 11:18:02;;;;;;;12.20;3.00;;;9.80;95.00;;;;;;4940833;29;20043;-81
2023/12/10 11:20:44;;;;;;;19.02;4.78;;;9.80;94.90;;;;;;4941109;29;20051;-80
2023/12/10 11:23:20;;;;;;;20.70;2.45;;;9.90;94.90;;;;;;4940599;29;20094;-78
2023/12/10 11:25:49;;;;;;;18.58;2.83;;;9.90;94.70;;;;;;4940446;29;20055;-79
2023/12/10 11:28:19;;;;;;;18.05;3.33;;;9.90;94.80;;;;;;4941284;29;20050;-80
2023/12/10 11:30:47;;;;;;;13.60;2.47;;;10.00;94.70;;;;;;4940774;29;20051;-80
2023/12/10 11:33:16;;;;;;;19.40;2.85;;;10.00;94.70;;;;;;4955990;29;20078;-79
2023/12/10 11:35:43;;;;;;;13.98;1.90;;;9.90;94.60;;;;;;4940497;29;20130;-78
2023/12/10 11:38:31;;;;;;;14.18;1.83;;;9.90;94.80;;;;;;4956186;29;20117;-80
2023/12/10 11:40:58;;;;;;;15.32;2.72;;;10.00;95.00;;;;;;4940106;29;20047;-78
2023/12/10 11:43:26;;;;;;;15.88;2.25;;;10.00;95.00;;;;;;4940575;29;20054;-81
2023/12/10 11:45:54;;;;;;;16.92;2.50;;;10.00;95.00;;;;;;4972633;28;20058;-80
2023/12/10 11:48:21;;;;;;;14.70;2.47;;;10.10;94.90;;;;;;4956315;29;20043;-79
2023/12/10 11:50:51;;;;;;;21.85;2.35;;;10.10;95.00;;;;;;4940099;29;20040;-79
2023/12/10 11:53:18;;;;;;;15.32;2.75;;;10.20;94.90;;;;;;4940251;29;20510;-83
2023/12/10 11:55:48;;;;;;;16.25;3.03;;;10.20;94.90;;;;;;4940330;29;20043;-77
2023/12/10 11:58:28;;;;;;;15.60;2.47;;;10.30;94.80;;;;;;4924014;28;20047;-75
2023/12/10 12:00:57;;;;;;;14.05;2.67;;;10.30;94.70;;;;;;4939542;29;20047;-77
2023/12/10 12:03:24;;;;;;;14.40;3.05;;;10.30;94.70;;;;;;4955884;29;20506;-76
2023/12/10 12:05:55;;;;;;;10.82;2.50;;;10.30;94.60;;;;;;4940208;29;20049;-77
2023/12/10 12:08:28;;;;;;;11.27;2.03;;;10.30;94.80;;;;;;4955733;29;20051;-76
2023/12/10 12:10:57;;;;;;;13.20;2.70;;;10.30;94.90;;;;;;4971695;28;20413;-76
2023/12/10 12:13:27;;;;;;;10.90;1.55;;;10.20;94.80;;;;;;4955988;29;20051;-77
2023/12/10 12:15:55;;;;;;;13.65;2.38;;;10.10;94.90;;;;;;4939836;29;20065;-76
2023/12/10 12:18:26;;;;;;;10.90;1.60;;;10.20;94.90;;;;;;4936613;29;20051;-79
2023/12/10 12:20:54;;;;;;;10.98;1.77;;;10.20;95.00;;;;;;4936491;29;20451;-76
2023/12/10 12:23:21;;;;;;;16.67;2.35;;;10.20;95.00;;;;;;4913736;29;20047;-77
2023/12/10 12:25:48;;;;;;;9.18;2.38;;;10.30;95.00;;;;;;4904678;29;20055;-77
2023/12/10 12:28:20;;;;;;;12.48;2.13;;;10.30;95.00;;;;;;4920539;29;20055;-78
2023/12/10 12:30:47;;;;;;;14.03;1.60;;;10.40;95.00;;;;;;4906529;29;20044;-78
2023/12/10 12:33:16;;;;;;;18.58;2.70;;;10.30;94.90;;;;;;4920764;29;20043;-78
2023/12/10 12:35:44;;;;;;;17.40;1.92;;;10.40;94.90;;;;;;4920343;29;20056;-78
2023/12/10 12:38:13;;;;;;;17.73;2.22;;;10.40;94.90;;;;;;4935926;29;20055;-77
2023/12/10 12:40:40;;;;;;;10.05;1.85;;;10.40;94.70;;;;;;4920275;29;20151;-77
2023/12/10 12:43:07;;;;;;;9.00;1.70;;;10.40;94.80;;;;;;4904754;29;20081;-77
2023/12/10 12:45:35;;;;;;;8.90;1.50;;;10.40;94.90;;;;;;4920003;29;20114;-77
2023/12/10 12:48:02;;;;;;;11.63;2.13;;;10.40;95.00;;;;;;4920504;29;20051;-77
2023/12/10 12:50:30;;;;;;;7.88;1.55;;;10.40;94.90;;;;;;4904396;29;20527;-77